Webcam Flughafen St.Gallen-Altenrhein

Live-Bilder und Zeitraffer LSZR / ACH.

 

Live aus Altenrhein
LIVE
LSZR 091450Z 22009KT 190V260 9999 -RA FEW025 SCT060 BKN100 07/03 Q1007 NOSIG RMK J
Zeitraffer heute
2019-12-09 00:14:44
LSZR 082250Z AUTO 12004KT 080V160 9999 BKN050 SCT070 BKN090 06/04 Q1009